Time;durP1;ratioP1;P1;durP2;ratioP2;P2;SDS_P1;SDS_P2;PMS_P1;PMS_P2;Temp;Humidity;BMP_temperature;BMP_pressure;BME280_temperature;BME280_humidity;BME280_pressure;Samples;Min_cycle;Max_cycle;Signal;HPM_P1;HPM_P2
2024/01/06 00:01:51;;;;;;;;;;;;;;;6.07;100.00;99275.22;6298977;28;19920;-76
2024/01/06 00:04:51;;;;;;;;;;;;;;;6.03;100.00;99277.16;6291059;28;20007;-71
2024/01/06 00:07:52;;;;;;;;;;;;;;;6.01;100.00;99274.66;6300112;28;20015;-71
2024/01/06 00:10:53;;;;;;;;;;;;;;;6.03;100.00;99262.47;6299920;28;19920;-75
2024/01/06 00:13:54;;;;;;;;;;;;;;;6.01;100.00;99268.63;6298750;28;20283;-76
2024/01/06 00:16:55;;;;;;;;;;;;;;;6.01;100.00;99263.44;6298324;28;19920;-76
2024/01/06 00:19:56;;;;;;;;;;;;;;;5.93;100.00;99263.00;6299503;28;19924;-71
2024/01/06 00:22:58;;;;;;;;;;;;;;;5.94;100.00;99259.50;6298516;28;19927;-75
2024/01/06 00:25:59;;;;;;;;;;;;;;;5.92;100.00;99257.00;6299443;28;19967;-76
2024/01/06 00:29:00;;;;;;;;;;;;;;;5.87;100.00;99248.66;6298200;28;19974;-76
2024/01/06 00:32:01;;;;;;;;;;;;;;;5.79;100.00;99261.19;6299122;28;20002;-75
2024/01/06 00:35:02;;;;;;;;;;;;;;;5.79;100.00;99261.19;6298244;28;20348;-75
2024/01/06 00:38:03;;;;;;;;;;;;;;;5.70;100.00;99261.66;6298228;28;19928;-76
2024/01/06 00:41:03;;;;;;;;;;;;;;;5.65;100.00;99254.97;6298074;28;19920;-75
2024/01/06 00:44:04;;;;;;;;;;;;;;;5.51;100.00;99254.88;6299144;28;19966;-75
2024/01/06 00:47:05;;;;;;;;;;;;;;;5.48;100.00;99257.63;6298797;28;20394;-76
2024/01/06 00:50:06;;;;;;;;;;;;;;;5.46;100.00;99256.88;6299227;28;20323;-72
2024/01/06 00:53:07;;;;;;;;;;;;;;;5.48;100.00;99257.63;6297803;28;19921;-73
2024/01/06 00:56:08;;;;;;;;;;;;;;;5.52;100.00;99256.56;6298730;28;19920;-72
2024/01/06 00:59:09;;;;;;;;;;;;;;;5.48;100.00;99257.63;6297442;28;20356;-72
2024/01/06 01:02:10;;;;;;;;;;;;;;;5.47;100.00;99253.34;6286807;28;20024;-76
2024/01/06 01:05:11;;;;;;;;;;;;;;;5.53;100.00;99250.44;6273267;28;20348;-76
2024/01/06 01:08:14;;;;;;;;;;;;;;;5.55;100.00;99250.38;6273709;28;20030;-76
2024/01/06 01:11:16;;;;;;;;;;;;;;;5.51;100.00;99246.28;6273566;28;20322;-71
2024/01/06 01:14:18;;;;;;;;;;;;;;;5.48;100.00;99243.84;6272421;28;19924;-73
2024/01/06 01:17:19;;;;;;;;;;;;;;;5.48;100.00;99247.28;6272833;28;19971;-72
2024/01/06 01:20:20;;;;;;;;;;;;;;;5.54;100.00;99238.34;6273166;28;19925;-76
2024/01/06 01:23:21;;;;;;;;;;;;;;;5.48;100.00;99233.47;6272218;28;19921;-75
2024/01/06 01:26:22;;;;;;;;;;;;;;;5.59;100.00;99231.19;6272977;28;20299;-75
2024/01/06 01:29:23;;;;;;;;;;;;;;;5.69;100.00;99226.34;6273450;28;19921;-75
2024/01/06 01:32:23;;;;;;;;;;;;;;;5.76;100.00;99228.50;6271927;28;19928;-76
2024/01/06 01:35:24;;;;;;;;;;;;;;;5.72;100.00;99218.41;6273273;28;19927;-71
2024/01/06 01:38:25;;;;;;;;;;;;;;;5.66;100.00;99209.22;6273127;28;19925;-76
2024/01/06 01:41:26;;;;;;;;;;;;;;;5.65;100.00;99203.19;6271968;28;19925;-71
2024/01/06 01:44:27;;;;;;;;;;;;;;;5.68;100.00;99203.97;6272150;28;19920;-72
2024/01/06 01:47:28;;;;;;;;;;;;;;;5.65;100.00;99199.78;6272888;28;19966;-71
2024/01/06 01:50:30;;;;;;;;;;;;;;;5.64;100.00;99195.50;6273060;28;20387;-72
2024/01/06 01:53:31;;;;;;;;;;;;;;;5.68;100.00;99193.59;6271872;28;20374;-71
2024/01/06 01:56:35;;;;;;;;;;;;;;;5.73;100.00;99189.84;6272923;28;19927;-71
2024/01/06 01:59:36;;;;;;;;;;;;;;;5.83;100.00;99191.03;6278336;28;20271;-76
2024/01/06 02:02:37;;;;;;;;;;;;;;;5.90;100.00;99182.91;6296443;28;19935;-76
2024/01/06 02:05:38;;;;;;;;;;;;;;;5.97;100.00;99179.06;6330370;28;19921;-76
2024/01/06 02:08:38;;;;;;;;;;;;;;;6.05;99.61;99182.06;6296334;28;20405;-76
2024/01/06 02:11:39;;;;;;;;;;;;;;;6.18;98.94;99183.06;6290756;28;19927;-72
2024/01/06 02:14:41;;;;;;;;;;;;;;;6.12;98.89;99173.06;6272450;28;20289;-71
2024/01/06 02:17:42;;;;;;;;;;;;;;;6.22;98.29;99168.19;6275469;28;19952;-76
2024/01/06 02:20:44;;;;;;;;;;;;;;;6.24;97.58;99168.94;6277443;28;20058;-76
2024/01/06 02:23:45;;;;;;;;;;;;;;;6.27;97.12;99158.38;6276302;28;20019;-71
2024/01/06 02:26:45;;;;;;;;;;;;;;;6.30;96.97;99158.22;6298271;28;20659;-74
2024/01/06 02:29:46;;;;;;;;;;;;;;;6.31;96.71;99151.28;6300538;28;19935;-71
2024/01/06 02:32:47;;;;;;;;;;;;;;;6.36;96.08;99144.91;6334865;28;19974;-72
2024/01/06 02:35:47;;;;;;;;;;;;;;;6.31;95.53;99144.34;6302369;28;20015;-72
2024/01/06 02:38:48;;;;;;;;;;;;;;;6.38;94.73;99131.84;6334504;28;20379;-72
2024/01/06 02:41:49;;;;;;;;;;;;;;;6.45;94.38;99135.75;6301713;28;19927;-71
2024/01/06 02:44:50;;;;;;;;;;;;;;;6.45;94.25;99130.56;6302230;28;19970;-71
2024/01/06 02:47:51;;;;;;;;;;;;;;;6.41;93.66;99122.16;6300597;28;19955;-72
2024/01/06 02:50:52;;;;;;;;;;;;;;;6.50;93.24;99122.53;6301899;28;19926;-72
2024/01/06 02:53:53;;;;;;;;;;;;;;;6.54;92.88;99114.47;6288368;28;19920;-72
2024/01/06 02:56:53;;;;;;;;;;;;;;;6.57;93.89;99118.63;6283206;28;19924;-72
2024/01/06 02:59:54;;;;;;;;;;;;;;;6.52;93.72;99113.72;6275097;28;20369;-72
2024/01/06 03:02:55;;;;;;;;;;;;;;;6.57;93.02;99114.31;6276270;28;19960;-72
2024/01/06 03:05:56;;;;;;;;;;;;;;;6.53;92.80;99107.63;6275072;28;19921;-71
2024/01/06 03:08:57;;;;;;;;;;;;;;;6.53;92.77;99106.81;6274851;28;19921;-72
2024/01/06 03:11:58;;;;;;;;;;;;;;;6.53;93.72;99105.03;6275041;28;19920;-76
2024/01/06 03:14:58;;;;;;;;;;;;;;;6.49;93.28;99106.16;6275974;28;19921;-72
2024/01/06 03:17:59;;;;;;;;;;;;;;;6.53;93.30;99104.22;6276287;28;19920;-76
2024/01/06 03:21:00;;;;;;;;;;;;;;;6.56;93.36;99097.06;6275991;28;19920;-76
2024/01/06 03:24:01;;;;;;;;;;;;;;;6.57;93.36;99097.91;6276047;28;19942;-76
2024/01/06 03:27:04;;;;;;;;;;;;;;;6.57;93.46;99097.91;6275308;28;19927;-76
2024/01/06 03:30:07;;;;;;;;;;;;;;;6.55;93.60;99100.59;6273801;28;19928;-71
2024/01/06 03:33:08;;;;;;;;;;;;;;;6.52;94.01;99093.00;6274508;28;19920;-71
2024/01/06 03:36:12;;;;;;;;;;;;;;;6.56;94.14;99097.06;6275585;28;19928;-72
2024/01/06 03:39:13;;;;;;;;;;;;;;;6.51;95.13;99100.88;6275607;28;19928;-71
2024/01/06 03:42:14;;;;;;;;;;;;;;;6.52;95.08;99112.91;6284026;28;19920;-71
2024/01/06 03:45:15;;;;;;;;;;;;;;;6.57;95.29;99103.09;6300267;28;19946;-71
2024/01/06 03:48:16;;;;;;;;;;;;;;;6.60;94.62;99102.91;6275178;28;20324;-72
2024/01/06 03:51:17;;;;;;;;;;;;;;;6.57;95.41;99103.94;6274855;28;20019;-72
2024/01/06 03:54:18;;;;;;;;;;;;;;;6.58;95.63;99110.78;6297733;28;19931;-71
2024/01/06 03:57:18;;;;;;;;;;;;;;;6.63;95.03;99105.31;6281551;28;19921;-71
2024/01/06 04:00:19;;;;;;;;;;;;;;;6.64;93.95;99110.41;6274814;28;19920;-72
2024/01/06 04:03:20;;;;;;;;;;;;;;;6.67;94.15;99109.38;6284302;28;19928;-72
2024/01/06 04:06:21;;;;;;;;;;;;;;;6.65;94.30;99108.66;6274660;28;19959;-72
2024/01/06 04:09:21;;;;;;;;;;;;;;;6.65;94.91;99121.59;6274169;28;19920;-71
2024/01/06 04:12:22;;;;;;;;;;;;;;;6.67;94.54;99114.56;6291234;28;19920;-76
2024/01/06 04:15:23;;;;;;;;;;;;;;;6.65;94.50;99113.81;6297548;28;20333;-76
2024/01/06 04:18:24;;;;;;;;;;;;;;;6.72;95.44;99119.50;6279409;28;20361;-75
2024/01/06 04:21:24;;;;;;;;;;;;;;;6.75;94.15;99116.72;6280167;28;20387;-76
2024/01/06 04:24:25;;;;;;;;;;;;;;;6.70;92.45;99113.56;6287967;28;19925;-76
2024/01/06 04:27:26;;;;;;;;;;;;;;;6.85;91.80;99118.66;6272644;28;19921;-76
2024/01/06 04:30:27;;;;;;;;;;;;;;;6.90;91.57;99112.34;6273896;28;19927;-76
2024/01/06 04:33:27;;;;;;;;;;;;;;;6.95;92.30;99110.31;6272560;28;19921;-75
2024/01/06 04:36:28;;;;;;;;;;;;;;;7.03;90.59;99116.69;6293906;28;19921;-76
2024/01/06 04:39:29;;;;;;;;;;;;;;;7.11;89.60;99121.44;6272641;28;19975;-76
2024/01/06 04:42:30;;;;;;;;;;;;;;;7.23;88.88;99114.66;6287153;28;20295;-71
2024/01/06 04:45:31;;;;;;;;;;;;;;;7.39;89.03;99117.97;6285790;28;19925;-71
2024/01/06 04:48:32;;;;;;;;;;;;;;;7.41;87.85;99115.25;6296479;28;19921;-71
2024/01/06 04:51:32;;;;;;;;;;;;;;;7.63;87.37;99114.72;6297835;28;19920;-76
2024/01/06 04:54:33;;;;;;;;;;;;;;;7.81;86.52;99107.53;6278626;28;19921;-71
2024/01/06 04:57:33;;;;;;;;;;;;;;;7.85;85.97;99111.59;6271736;28;20436;-72
2024/01/06 05:00:36;;;;;;;;;;;;;;;7.87;86.29;99112.34;6276607;28;19921;-72
2024/01/06 05:03:36;;;;;;;;;;;;;;;7.90;86.25;99108.69;6293485;28;19920;-75
2024/01/06 05:06:37;;;;;;;;;;;;;;;7.92;85.73;99125.00;6297569;28;20390;-75
2024/01/06 05:09:38;;;;;;;;;;;;;;;8.02;85.89;99113.91;6297162;28;19929;-76
2024/01/06 05:12:39;;;;;;;;;;;;;;;8.05;86.36;99110.28;6296311;28;19927;-75
2024/01/06 05:15:39;;;;;;;;;;;;;;;8.00;86.51;99114.97;6329608;28;19924;-76
2024/01/06 05:18:40;;;;;;;;;;;;;;;8.05;88.39;99110.28;6297337;28;19935;-76
2024/01/06 05:21:41;;;;;;;;;;;;;;;8.17;88.63;99119.88;6297023;28;19955;-76
2024/01/06 05:24:42;;;;;;;;;;;;;;;8.16;90.81;99115.63;6295887;28;20015;-75
2024/01/06 05:27:45;;;;;;;;;;;;;;;8.16;91.84;99117.41;6296977;28;20284;-72
2024/01/06 05:30:46;;;;;;;;;;;;;;;8.20;93.27;99127.47;6297147;28;20276;-76
2024/01/06 05:33:47;;;;;;;;;;;;;;;8.15;94.32;99126.09;6297146;28;19920;-75
2024/01/06 05:36:48;;;;;;;;;;;;;;;8.18;95.98;99125.91;6295963;28;20348;-76
2024/01/06 05:39:49;;;;;;;;;;;;;;;8.15;98.45;99133.91;6295637;28;20347;-76
2024/01/06 05:42:52;;;;;;;;;;;;;;;8.13;100.00;99139.19;6296910;28;19928;-75
2024/01/06 05:45:53;;;;;;;;;;;;;;;8.14;100.00;99133.06;6297073;28;19979;-75
2024/01/06 05:48:55;;;;;;;;;;;;;;;8.14;100.00;99129.66;6329304;28;19920;-75
2024/01/06 05:51:59;;;;;;;;;;;;;;;8.20;100.00;99132.66;6329197;28;19924;-75
2024/01/06 05:55:02;;;;;;;;;;;;;;;8.08;100.00;99133.47;6295508;28;19927;-71
2024/01/06 05:58:03;;;;;;;;;;;;;;;8.20;100.00;99134.44;6296974;28;19920;-72
2024/01/06 06:01:04;;;;;;;;;;;;;;;8.13;100.00;99131.41;6295350;28;19920;-71
2024/01/06 06:04:04;;;;;;;;;;;;;;;8.02;100.00;99139.91;6329175;28;19926;-75
2024/01/06 06:07:07;;;;;;;;;;;;;;;8.10;100.00;99133.38;6296735;28;19920;-76
2024/01/06 06:10:09;;;;;;;;;;;;;;;8.08;100.00;99139.50;6296452;28;20421;-75
2024/01/06 06:13:10;;;;;;;;;;;;;;;8.16;100.00;99144.19;6295661;28;19973;-75
2024/01/06 06:16:14;;;;;;;;;;;;;;;8.18;100.00;99144.94;6295116;28;20334;-75
2024/01/06 06:19:17;;;;;;;;;;;;;;;8.18;100.00;99134.53;6296594;28;20259;-76
2024/01/06 06:22:18;;;;;;;;;;;;;;;8.19;100.00;99141.38;6296217;28;20437;-71
2024/01/06 06:25:19;;;;;;;;;;;;;;;8.21;100.00;99138.69;6295142;28;20363;-72
2024/01/06 06:28:20;;;;;;;;;;;;;;;8.23;100.00;99134.22;6294933;28;19921;-75
2024/01/06 06:31:21;;;;;;;;;;;;;;;8.34;100.00;99120.50;6296244;28;19930;-75
2024/01/06 06:34:21;;;;;;;;;;;;;;;8.32;100.00;99124.97;6295415;28;20413;-76
2024/01/06 06:37:22;;;;;;;;;;;;;;;8.36;100.00;99114.31;6296416;28;19943;-71
2024/01/06 06:40:23;;;;;;;;;;;;;;;8.43;100.00;99114.75;6296117;28;20372;-75
2024/01/06 06:43:24;;;;;;;;;;;;;;;8.36;100.00;99126.44;6295982;28;19921;-76
2024/01/06 06:46:25;;;;;;;;;;;;;;;8.29;100.00;99113.03;6296286;28;20292;-76
2024/01/06 06:49:25;;;;;;;;;;;;;;;8.29;100.00;99118.22;6294787;28;19924;-75
2024/01/06 06:52:26;;;;;;;;;;;;;;;8.27;100.00;99118.31;6328752;28;19928;-75
2024/01/06 06:55:27;;;;;;;;;;;;;;;8.27;100.00;99120.09;6295992;28;19927;-75
2024/01/06 06:58:28;;;;;;;;;;;;;;;8.19;100.00;99123.19;6296207;28;19927;-76
2024/01/06 07:01:28;;;;;;;;;;;;;;;8.18;100.00;99118.94;6295820;28;20066;-76
2024/01/06 07:04:30;;;;;;;;;;;;;;;8.10;100.00;99115.19;6300548;28;19921;-76
2024/01/06 07:07:30;;;;;;;;;;;;;;;8.08;100.00;99116.13;6299241;28;19920;-76
2024/01/06 07:10:31;;;;;;;;;;;;;;;8.13;100.00;99108.00;6298868;28;19924;-76
2024/01/06 07:13:32;;;;;;;;;;;;;;;8.05;100.00;99107.69;6298843;28;20411;-76
2024/01/06 07:16:33;;;;;;;;;;;;;;;8.07;100.00;99100.63;6298648;28;20410;-76
2024/01/06 07:19:34;;;;;;;;;;;;;;;8.07;100.00;99101.47;6332850;28;19956;-75
2024/01/06 07:22:36;;;;;;;;;;;;;;;8.09;100.00;99106.53;6298826;28;19924;-75
2024/01/06 07:25:37;;;;;;;;;;;;;;;8.04;100.00;99106.03;6300244;28;19946;-75
2024/01/06 07:28:38;;;;;;;;;;;;;;;8.00;100.00;99099.38;6299987;28;19921;-75
2024/01/06 07:31:41;;;;;;;;;;;;;;;8.05;100.00;99099.88;6299702;28;19955;-76
2024/01/06 07:34:43;;;;;;;;;;;;;;;8.01;100.00;99111.41;6298541;28;19920;-75
2024/01/06 07:37:44;;;;;;;;;;;;;;;8.07;100.00;99108.41;6299553;28;20394;-76
2024/01/06 07:40:44;;;;;;;;;;;;;;;8.07;100.00;99126.59;6299685;28;19924;-76
2024/01/06 07:43:45;;;;;;;;;;;;;;;8.07;100.00;99119.66;6299279;28;19931;-76
2024/01/06 07:46:46;;;;;;;;;;;;;;;8.16;100.00;99120.00;6298160;28;19921;-75
2024/01/06 07:49:47;;;;;;;;;;;;;;;8.22;100.00;99122.19;6298077;28;19927;-76
2024/01/06 07:52:48;;;;;;;;;;;;;;;8.26;100.00;99131.44;6298287;28;20031;-76
2024/01/06 07:55:51;;;;;;;;;;;;;;;8.32;100.00;99128.44;6331593;28;20015;-76
2024/01/06 07:58:53;;;;;;;;;;;;;;;8.34;100.00;99142.16;6299456;28;19928;-76
2024/01/06 08:01:54;;;;;;;;;;;;;;;8.43;100.00;99143.34;6297605;28;19990;-76
2024/01/06 08:04:55;;;;;;;;;;;;;;;8.45;100.00;99142.31;6297796;28;19920;-76
2024/01/06 08:07:56;;;;;;;;;;;;;;;8.51;100.00;99148.88;6299098;28;20007;-76
2024/01/06 08:10:57;;;;;;;;;;;;;;;8.55;100.00;99146.91;6297571;28;19920;-76
2024/01/06 08:13:57;;;;;;;;;;;;;;;8.55;100.00;99147.72;6297534;28;19921;-71
2024/01/06 08:16:58;;;;;;;;;;;;;;;8.53;100.00;99153.97;6297524;28;20003;-76
2024/01/06 08:19:59;;;;;;;;;;;;;;;8.52;100.00;99155.72;6298593;28;19920;-76
2024/01/06 08:23:00;;;;;;;;;;;;;;;8.62;100.00;99154.16;6298430;28;20422;-76
2024/01/06 08:26:01;;;;;;;;;;;;;;;8.71;100.00;99151.88;6297612;28;19924;-75
2024/01/06 08:29:02;;;;;;;;;;;;;;;8.74;100.00;99162.91;6298593;28;19925;-75
2024/01/06 08:32:05;;;;;;;;;;;;;;;8.78;100.00;99153.16;6298225;28;19920;-75
2024/01/06 08:35:06;;;;;;;;;;;;;;;8.82;100.00;99163.22;6298252;28;20086;-76
2024/01/06 08:38:07;;;;;;;;;;;;;;;8.79;100.00;99173.00;6296879;28;20368;-76
2024/01/06 08:41:10;;;;;;;;;;;;;;;8.79;100.00;99168.66;6297104;28;19921;-76
2024/01/06 08:44:11;;;;;;;;;;;;;;;8.78;100.00;99174.78;6296681;28;20311;-73
2024/01/06 08:47:14;;;;;;;;;;;;;;;8.78;100.00;99177.38;6296909;28;20042;-73
2024/01/06 08:50:15;;;;;;;;;;;;;;;8.59;100.00;99166.56;6297982;28;19955;-72
2024/01/06 08:53:16;;;;;;;;;;;;;;;8.78;100.00;99169.56;6297809;28;19920;-72
2024/01/06 08:56:17;;;;;;;;;;;;;;;8.77;100.00;99167.06;6296406;28;19921;-72
2024/01/06 08:59:20;;;;;;;;;;;;;;;8.84;100.00;99173.53;6296720;28;19927;-73
2024/01/06 09:02:21;;;;;;;;;;;;;;;8.94;100.00;99158.97;6296235;28;19928;-72
2024/01/06 09:05:24;;;;;;;;;;;;;;;8.99;100.00;99161.25;6297408;28;19966;-71
2024/01/06 09:08:25;;;;;;;;;;;;;;;8.99;100.00;99154.28;6296297;28;19924;-76
2024/01/06 09:11:26;;;;;;;;;;;;;;;8.95;100.00;99157.19;6296184;28;20394;-71
2024/01/06 09:14:27;;;;;;;;;;;;;;;8.95;100.00;99159.78;6297492;28;19924;-76
2024/01/06 09:17:27;;;;;;;;;;;;;;;8.82;100.00;99155.44;6297406;28;19924;-76
2024/01/06 09:20:28;;;;;;;;;;;;;;;8.82;100.00;99150.22;6297191;28;19920;-76
2024/01/06 09:23:30;;;;;;;;;;;;;;;8.82;100.00;99149.41;6297093;28;20014;-76
2024/01/06 09:26:32;;;;;;;;;;;;;;;8.76;100.00;99148.03;6329546;28;19930;-75
2024/01/06 09:29:32;;;;;;;;;;;;;;;8.91;100.00;99134.94;6297468;28;19924;-75
2024/01/06 09:32:33;;;;;;;;;;;;;;;9.00;100.00;99140.34;6297196;28;19973;-75
2024/01/06 09:35:34;;;;;;;;;;;;;;;9.00;100.00;99129.09;6297054;28;19989;-76
2024/01/06 09:38:34;;;;;;;;;;;;;;;9.06;100.00;99133.88;6296822;28;19927;-76
2024/01/06 09:41:35;;;;;;;;;;;;;;;8.98;100.00;99125.78;6297062;28;19920;-76
2024/01/06 09:44:36;;;;;;;;;;;;;;;9.05;100.00;99133.03;6296832;28;19920;-76
2024/01/06 09:47:39;;;;;;;;;;;;;;;9.12;100.00;99127.41;6296886;28;19966;-76
2024/01/06 09:50:41;;;;;;;;;;;;;;;9.08;100.00;99116.41;6295732;28;20372;-76
2024/01/06 09:54:02;;;;;;;;;;;;;;;9.23;100.00;99119.69;6295600;28;20406;-76
2024/01/06 09:57:05;;;;;;;;;;;;;;;9.31;100.00;99121.72;6296328;28;19963;-75
2024/01/06 10:00:08;;;;;;;;;;;;;;;9.38;100.00;99110.78;6296787;28;20372;-76
2024/01/06 10:03:09;;;;;;;;;;;;;;;9.39;100.00;99111.59;6296421;28;20265;-76
2024/01/06 10:06:10;;;;;;;;;;;;;;;9.54;100.00;99107.09;6295673;28;20438;-76
2024/01/06 10:09:14;;;;;;;;;;;;;;;9.53;100.00;99105.41;6296530;28;19931;-75
2024/01/06 10:12:15;;;;;;;;;;;;;;;9.72;100.00;99099.72;6296559;28;20272;-76
2024/01/06 10:15:16;;;;;;;;;;;;;;;9.63;100.00;99101.22;6295364;28;19935;-75
2024/01/06 10:18:17;;;;;;;;;;;;;;;9.72;100.00;99087.53;6296492;28;20007;-75
2024/01/06 10:21:20;;;;;;;;;;;;;;;9.60;100.00;99089.25;6295421;28;20292;-75
2024/01/06 10:24:20;;;;;;;;;;;;;;;9.72;100.00;99094.50;6294992;28;20356;-76
2024/01/06 10:27:21;;;;;;;;;;;;;;;9.54;100.00;99089.69;6296404;28;19920;-75
2024/01/06 10:30:24;;;;;;;;;;;;;;;9.65;100.00;99078.50;6295026;28;19921;-76
2024/01/06 10:33:25;;;;;;;;;;;;;;;9.59;100.00;99082.38;6296405;28;19920;-72
2024/01/06 10:36:26;;;;;;;;;;;;;;;9.72;100.00;99078.88;6296109;28;20478;-71
2024/01/06 10:39:29;;;;;;;;;;;;;;;9.84;100.00;99081.44;6301169;28;19920;-71
2024/01/06 10:42:30;;;;;;;;;;;;;;;9.89;100.00;99068.06;6299627;28;19921;-72
2024/01/06 10:45:33;;;;;;;;;;;;;;;9.85;100.00;99066.63;6299550;28;20372;-71
2024/01/06 10:48:35;;;;;;;;;;;;;;;9.82;100.00;99066.84;6300898;28;19927;-71
2024/01/06 10:51:37;;;;;;;;;;;;;;;9.72;100.00;99063.25;6299399;28;19964;-76
2024/01/06 10:54:38;;;;;;;;;;;;;;;9.72;100.00;99050.22;6300671;28;19943;-76
2024/01/06 10:57:41;;;;;;;;;;;;;;;9.82;100.00;99044.25;6300377;28;20364;-74
2024/01/06 11:00:42;;;;;;;;;;;;;;;9.77;100.00;99045.50;6300788;28;19924;-74
2024/01/06 11:03:45;;;;;;;;;;;;;;;9.84;100.00;99034.53;6298901;28;19966;-76
2024/01/06 11:06:47;;;;;;;;;;;;;;;9.90;100.00;99033.22;6299213;28;20387;-75
2024/01/06 11:09:53;;;;;;;;;;;;;;;9.98;100.00;99024.84;6300270;28;20410;-75
2024/01/06 11:13:23;;;;;;;;;;;;;;;9.87;100.00;99021.28;6299199;28;19955;-75
2024/01/06 11:16:37;;;;;;;;;;;;;;;9.83;100.00;99019.84;6298734;28;19970;-76
2024/01/06 11:19:37;;;;;;;;;;;;;;;9.96;100.00;99014.53;6299045;28;19920;-75
2024/01/06 11:22:39;;;;;;;;;;;;;;;9.87;100.00;99013.44;6299867;28;19928;-76
2024/01/06 11:25:41;;;;;;;;;;;;;;;10.05;100.00;99002.59;6298964;28;19921;-76
2024/01/06 11:28:51;;;;;;;;;;;;;;;9.84;100.00;99005.88;6299918;28;20428;-75
2024/01/06 11:32:10;;;;;;;;;;;;;;;9.95;100.00;99002.47;6298792;28;19925;-72
2024/01/06 11:35:12;;;;;;;;;;;;;;;9.95;100.00;98991.22;6298312;28;19925;-71
2024/01/06 11:38:13;;;;;;;;;;;;;;;10.00;100.00;98992.50;6298635;28;19920;-72
2024/01/06 11:41:36;;;;;;;;;;;;;;;10.00;100.00;98984.69;6300139;28;19927;-72
2024/01/06 11:44:45;;;;;;;;;;;;;;;9.91;100.00;98993.22;6299357;28;19924;-71
2024/01/06 11:47:47;;;;;;;;;;;;;;;9.83;100.00;98996.38;6297914;28;20006;-71
2024/01/06 11:50:49;;;;;;;;;;;;;;;9.94;100.00;98979.94;6298292;28;19921;-70
2024/01/06 11:53:50;;;;;;;;;;;;;;;10.03;100.00;98991.47;6299141;28;20506;-70
2024/01/06 11:56:53;;;;;;;;;;;;;;;10.15;100.00;98987.94;6297969;28;19925;-71
2024/01/06 11:59:54;;;;;;;;;;;;;;;10.16;100.00;98984.38;6298025;28;19949;-70
2024/01/06 12:02:56;;;;;;;;;;;;;;;10.17;100.00;98980.81;6299034;28;19966;-75
2024/01/06 12:06:02;;;;;;;;;;;;;;;10.22;100.00;98981.28;6297864;28;19927;-76
2024/01/06 12:09:06;;;;;;;;;;;;;;;10.16;100.00;98983.53;6299179;28;20274;-75
2024/01/06 12:12:07;;;;;;;;;;;;;;;10.17;100.00;98977.38;6297655;28;20021;-75
2024/01/06 12:15:11;;;;;;;;;;;;;;;10.16;100.00;98973.94;6297666;28;20269;-72
2024/01/06 12:18:12;;;;;;;;;;;;;;;10.15;100.00;98982.72;6297921;28;19924;-72
2024/01/06 12:21:13;;;;;;;;;;;;;;;10.07;100.00;98969.44;6297255;28;19920;-71
2024/01/06 12:24:20;;;;;;;;;;;;;;;10.00;100.00;98976.88;6298430;28;20294;-71
2024/01/06 12:27:21;;;;;;;;;;;;;;;10.01;100.00;98967.31;6298451;28;20282;-72
2024/01/06 12:30:23;;;;;;;;;;;;;;;10.00;100.00;98961.22;6298622;28;20011;-70
2024/01/06 12:33:24;;;;;;;;;;;;;;;10.03;100.00;98973.22;6297098;28;19924;-71
2024/01/06 12:36:25;;;;;;;;;;;;;;;9.98;100.00;98964.91;6297287;28;19920;-71
2024/01/06 12:39:29;;;;;;;;;;;;;;;9.97;100.00;98965.88;6298025;28;19968;-71
2024/01/06 12:42:30;;;;;;;;;;;;;;;9.97;100.00;98963.25;6297149;28;19920;-72
2024/01/06 12:45:33;;;;;;;;;;;;;;;9.94;100.00;98966.09;6297784;28;20019;-76
2024/01/06 12:48:33;;;;;;;;;;;;;;;9.89;100.00;98971.66;6297902;28;20362;-73
2024/01/06 12:51:34;;;;;;;;;;;;;;;9.75;100.00;98972.69;6297911;28;19927;-72
2024/01/06 12:54:35;;;;;;;;;;;;;;;9.82;100.00;98980.84;6297689;28;19921;-72
2024/01/06 12:57:36;;;;;;;;;;;;;;;9.85;100.00;98986.69;6297638;28;19927;-76
2024/01/06 13:00:38;;;;;;;;;;;;;;;9.87;100.00;98979.56;6295673;28;20375;-77
2024/01/06 13:03:39;;;;;;;;;;;;;;;9.85;100.00;98985.84;6297432;28;20352;-77
2024/01/06 13:06:40;;;;;;;;;;;;;;;9.89;100.00;98989.91;6297388;28;19926;-76
2024/01/06 13:09:40;;;;;;;;;;;;;;;9.87;100.00;98984.78;6296718;28;19921;-77
2024/01/06 13:12:41;;;;;;;;;;;;;;;9.88;100.00;98976.03;6296366;28;19920;-77
2024/01/06 13:15:42;;;;;;;;;;;;;;;9.92;100.00;98974.00;6296305;28;19930;-77
2024/01/06 13:18:43;;;;;;;;;;;;;;;9.75;100.00;98972.69;6297690;28;19924;-77
2024/01/06 13:21:44;;;;;;;;;;;;;;;9.72;100.00;98978.13;6295981;28;19920;-77
2024/01/06 13:24:44;;;;;;;;;;;;;;;9.63;100.00;98969.22;6296049;28;19975;-75
2024/01/06 13:27:45;;;;;;;;;;;;;;;9.67;100.00;98973.25;6297592;28;19974;-77
2024/01/06 13:30:46;;;;;;;;;;;;;;;9.72;100.00;98965.13;6295904;28;19970;-77
2024/01/06 13:33:47;;;;;;;;;;;;;;;9.61;100.00;98959.84;6297040;28;20368;-77
2024/01/06 13:36:47;;;;;;;;;;;;;;;9.62;100.00;98957.16;6295716;28;19921;-76
2024/01/06 13:39:48;;;;;;;;;;;;;;;9.57;100.00;98956.63;6296022;28;19920;-76
2024/01/06 13:42:52;;;;;;;;;;;;;;;9.52;100.00;98955.34;6296916;28;19959;-77
2024/01/06 13:45:53;;;;;;;;;;;;;;;9.51;100.00;98948.47;6296795;28;19920;-75
2024/01/06 13:48:56;;;;;;;;;;;;;;;9.32;100.00;98943.78;6295730;28;19927;-77
2024/01/06 13:51:57;;;;;;;;;;;;;;;9.36;100.00;98945.22;6295612;28;19997;-76
2024/01/06 13:54:59;;;;;;;;;;;;;;;9.28;100.00;98941.41;6329122;28;19928;-76
2024/01/06 13:57:59;;;;;;;;;;;;;;;9.22;100.00;98946.22;6295634;28;19920;-77
2024/01/06 14:01:00;;;;;;;;;;;;;;;9.31;100.00;98942.13;6295178;28;19960;-76
2024/01/06 14:04:01;;;;;;;;;;;;;;;9.25;100.00;98936.44;6328993;28;20371;-77
2024/01/06 14:07:02;;;;;;;;;;;;;;;9.30;100.00;98941.28;6295365;28;20368;-77
2024/01/06 14:10:03;;;;;;;;;;;;;;;9.25;100.00;98938.22;6329356;28;19927;-73
2024/01/06 14:13:04;;;;;;;;;;;;;;;9.20;100.00;98941.13;6299771;28;19927;-73
2024/01/06 14:16:05;;;;;;;;;;;;;;;9.08;100.00;98945.47;6300475;28;20284;-73
2024/01/06 14:19:05;;;;;;;;;;;;;;;9.07;100.00;98933.38;6300581;28;20007;-74
2024/01/06 14:22:06;;;;;;;;;;;;;;;9.16;100.00;98947.53;6300296;28;19970;-73
2024/01/06 14:25:07;;;;;;;;;;;;;;;9.10;100.00;98937.56;6300255;28;19927;-73
2024/01/06 14:28:08;;;;;;;;;;;;;;;9.14;100.00;98933.78;6301281;28;19920;-73
2024/01/06 14:31:10;;;;;;;;;;;;;;;9.02;100.00;98932.09;6300314;28;19943;-73
2024/01/06 14:34:11;;;;;;;;;;;;;;;8.91;100.00;98932.84;6301128;28;20379;-73
2024/01/06 14:37:12;;;;;;;;;;;;;;;8.86;100.00;98934.94;6299911;28;19921;-73
2024/01/06 14:40:13;;;;;;;;;;;;;;;8.95;100.00;98929.06;6299743;28;19930;-73
2024/01/06 14:43:13;;;;;;;;;;;;;;;8.83;100.00;98940.34;6333845;28;20023;-73
2024/01/06 14:46:14;;;;;;;;;;;;;;;8.78;100.00;98929.47;6301237;28;19973;-73
2024/01/06 14:49:14;;;;;;;;;;;;;;;8.75;100.00;98927.06;6299592;28;19921;-73
2024/01/06 14:52:16;;;;;;;;;;;;;;;8.85;100.00;98928.94;6333367;28;19971;-71
2024/01/06 14:55:18;;;;;;;;;;;;;;;8.73;100.00;98924.59;6300462;28;20011;-73
2024/01/06 14:58:18;;;;;;;;;;;;;;;8.79;100.00;98918.09;6300749;28;19966;-74
2024/01/06 15:01:19;;;;;;;;;;;;;;;8.87;100.00;98913.19;6300350;28;19920;-73
2024/01/06 15:04:20;;;;;;;;;;;;;;;8.79;100.00;98912.91;6300485;28;19920;-73
2024/01/06 15:07:20;;;;;;;;;;;;;;;8.75;100.00;98911.47;6299147;28;20352;-73
2024/01/06 15:10:21;;;;;;;;;;;;;;;8.59;100.00;98899.56;6299120;28;19920;-74
2024/01/06 15:13:22;;;;;;;;;;;;;;;8.66;100.00;98900.78;6300333;28;19924;-73
2024/01/06 15:16:22;;;;;;;;;;;;;;;8.70;100.00;98910.97;6300029;28;20011;-73
2024/01/06 15:19:27;;;;;;;;;;;;;;;8.72;100.00;98904.72;6300277;28;19924;-73
2024/01/06 15:22:28;;;;;;;;;;;;;;;8.65;100.00;98899.13;6299219;28;19927;-73
2024/01/06 15:25:28;;;;;;;;;;;;;;;8.72;100.00;98902.13;6298678;28;19920;-74
2024/01/06 15:28:29;;;;;;;;;;;;;;;8.61;100.00;98895.09;6298594;28;19920;-73
2024/01/06 15:31:30;;;;;;;;;;;;;;;8.59;100.00;98891.78;6298687;28;19999;-73
2024/01/06 15:34:31;;;;;;;;;;;;;;;8.56;100.00;98894.56;6298630;28;19927;-73
2024/01/06 15:37:32;;;;;;;;;;;;;;;8.50;100.00;98896.78;6298527;28;19952;-73
2024/01/06 15:40:33;;;;;;;;;;;;;;;8.52;100.00;98897.50;6299664;28;19924;-73
2024/01/06 15:43:33;;;;;;;;;;;;;;;8.51;100.00;98894.09;6299888;28;19920;-73
2024/01/06 15:46:34;;;;;;;;;;;;;;;8.54;100.00;98898.22;6299592;28;20270;-73